Time;durP1;ratioP1;P1;durP2;ratioP2;P2;SDS_P1;SDS_P2;PMS_P1;PMS_P2;Temp;Humidity;BMP_temperature;BMP_pressure;BME280_temperature;BME280_humidity;BME280_pressure;Samples;Min_cycle;Max_cycle;Signal;HPM_P1;HPM_P2
2023/02/03 00:01:46;;;;;;;2.57;2.27;;;;;;;7.94;100.00;101658.28;6165506;28;20574;-68
2023/02/03 00:05:10;;;;;;;2.43;2.20;;;;;;;8.24;100.00;101663.47;6174242;28;20229;-68
2023/02/03 00:08:32;;;;;;;4.27;1.90;;;;;;;7.84;100.00;101662.53;6172103;28;20249;-67
2023/02/03 00:11:53;;;;;;;2.50;2.07;;;;;;;8.08;100.00;101656.44;6178187;28;20320;-68
2023/02/03 00:15:14;;;;;;;1.57;1.43;;;;;;;7.96;100.00;101649.19;6167454;28;20272;-68
2023/02/03 00:18:35;;;;;;;2.40;1.70;;;;;;;8.14;100.00;101639.03;6172893;28;20237;-68
2023/02/03 00:21:56;;;;;;;1.93;1.83;;;;;;;8.29;100.00;101637.19;6178993;28;20230;-68
2023/02/03 00:25:20;;;;;;;2.37;2.17;;;;;;;8.63;100.00;101625.88;6174314;28;20581;-68
2023/02/03 00:28:41;;;;;;;2.47;2.27;;;;;;;8.61;100.00;101635.88;6169075;28;20237;-68
2023/02/03 00:32:02;;;;;;;3.50;2.80;;;;;;;8.90;100.00;101641.91;6175371;28;20233;-68
2023/02/03 00:35:23;;;;;;;3.87;3.20;;;;;;;8.74;100.00;101626.00;6192288;28;20255;-69
2023/02/03 00:38:44;;;;;;;4.37;3.13;;;;;;;9.00;100.00;101616.09;6173134;28;20242;-68
2023/02/03 00:42:06;;;;;;;3.73;3.23;;;;;;;8.99;100.00;101606.34;6179331;28;20627;-68
2023/02/03 00:45:27;;;;;;;3.83;3.43;;;;;;;9.11;100.00;101613.53;6169452;28;20328;-69
2023/02/03 00:48:48;;;;;;;2.50;2.00;;;;;;;9.01;100.00;101597.16;6178465;28;20226;-68
2023/02/03 00:52:09;;;;;;;4.67;3.77;;;;;;;9.18;100.00;101596.00;6175288;28;20747;-68
2023/02/03 00:55:32;;;;;;;2.47;2.27;;;;;;;9.13;100.00;101593.63;6155780;28;20234;-70
2023/02/03 00:58:54;;;;;;;5.50;2.30;;;;;;;9.26;100.00;101583.69;6174913;28;20233;-68
2023/02/03 01:02:16;;;;;;;2.50;2.30;;;;;;;9.35;100.00;101583.03;6171681;28;20696;-69
2023/02/03 01:05:37;;;;;;;3.27;3.00;;;;;;;9.60;100.00;101574.88;6177978;28;20241;-70
2023/02/03 01:08:58;;;;;;;3.33;3.03;;;;;;;9.47;100.00;101574.06;6172491;28;20227;-69
2023/02/03 01:12:19;;;;;;;3.77;2.57;;;;;;;9.42;100.00;101564.63;6171526;28;20238;-69
2023/02/03 01:15:47;;;;;;;3.60;2.80;;;;;;;9.86;100.00;101561.31;6175207;28;20273;-69
2023/02/03 01:19:08;;;;;;;4.23;3.07;;;;;;;10.11;100.00;101545.06;6173400;28;20285;-69
2023/02/03 01:22:29;;;;;;;4.27;3.10;;;;;;;9.99;100.00;101538.72;6174002;28;20800;-68
2023/02/03 01:25:50;;;;;;;2.63;2.43;;;;;;;9.84;100.00;101547.13;6158064;28;20252;-68
2023/02/03 01:29:11;;;;;;;4.70;4.23;;;;;;;10.07;100.00;101516.63;6181483;28;20265;-66
2023/02/03 01:32:34;;;;;;;4.87;3.50;;;;;;;9.93;100.00;101512.25;6170761;28;20321;-69
2023/02/03 01:35:55;;;;;;;2.57;2.17;;;;;;;9.74;100.00;101520.03;6176769;28;20229;-69
2023/02/03 01:39:16;;;;;;;3.60;3.30;;;;;;;9.84;100.00;101494.13;6164773;28;20832;-66
2023/02/03 01:42:39;;;;;;;2.30;2.10;;;;;;;9.92;100.00;101486.31;6167697;28;20477;-68
2023/02/03 01:46:04;;;;;;;9.33;3.30;;;;;;;9.97;100.00;101450.97;6160922;28;20242;-69
2023/02/03 01:49:32;;;;;;;4.10;2.37;;;;;;;9.77;100.00;101460.56;6178024;28;20238;-68
2023/02/03 01:52:58;;;;;;;4.27;3.13;;;;;;;9.97;100.00;101456.34;6175711;28;20222;-68
2023/02/03 01:56:19;;;;;;;2.60;2.40;;;;;;;9.90;100.00;101458.66;6164945;28;20242;-69
2023/02/03 01:59:40;;;;;;;6.80;3.60;;;;;;;9.91;100.00;101463.03;6173723;28;21305;-69
2023/02/03 02:03:04;;;;;;;3.67;2.23;;;;;;;9.67;100.00;101481.06;6173250;28;20249;-70
2023/02/03 02:06:27;;;;;;;8.57;4.23;;;;;;;9.89;100.00;101486.53;6163012;28;20234;-68
2023/02/03 02:09:49;;;;;;;6.47;2.90;;;;;;;9.94;100.00;101470.03;6158252;28;20243;-68
2023/02/03 02:13:10;;;;;;;6.20;3.00;;;;;;;10.00;100.00;101464.19;6160771;28;20242;-68
2023/02/03 02:16:44;;;;;;;4.30;3.13;;;;;;;9.95;100.00;101469.09;6167236;28;20225;-69
2023/02/03 02:20:31;;;;;;;1.90;1.80;;;;;;;10.10;100.00;101475.94;6179196;28;20237;-69
2023/02/03 02:24:27;;;;;;;4.13;3.53;;;;;;;9.90;100.00;101477.50;6184512;28;20230;-68
2023/02/03 02:28:10;;;;;;;7.70;2.10;;;;;;;9.54;100.00;101447.97;6166098;28;20604;-69
2023/02/03 02:31:50;;;;;;;3.53;3.20;;;;;;;9.56;100.00;101446.03;6156719;28;20320;-69
2023/02/03 02:35:24;;;;;;;3.47;2.40;;;;;;;9.83;100.00;101441.25;6189143;28;20616;-69
2023/02/03 02:38:57;;;;;;;3.23;1.90;;;;;;;9.91;100.00;101444.19;6158136;28;20295;-69
2023/02/03 02:42:25;;;;;;;5.23;2.73;;;;;;;9.71;100.00;101436.78;6170876;28;20248;-69
2023/02/03 02:45:49;;;;;;;2.97;2.40;;;;;;;9.71;100.00;101430.53;6179051;28;20357;-68
2023/02/03 02:49:16;;;;;;;2.27;2.07;;;;;;;9.67;100.00;101427.25;6172398;28;20230;-69
2023/02/03 02:52:42;;;;;;;2.53;2.33;;;;;;;9.79;100.00;101430.81;6159896;28;20503;-68
2023/02/03 02:56:05;;;;;;;2.30;2.17;;;;;;;9.96;100.00;101430.38;6155991;28;20325;-68
2023/02/03 02:59:26;;;;;;;13.23;2.67;;;;;;;10.15;100.00;101433.41;6169793;28;20237;-69
2023/02/03 03:02:47;;;;;;;2.10;1.87;;;;;;;9.81;100.00;101412.69;6179273;28;20534;-68
2023/02/03 03:06:12;;;;;;;4.20;3.73;;;;;;;10.33;97.44;101408.56;6170214;28;20249;-69
2023/02/03 03:09:39;;;;;;;1.97;1.80;;;;;;;9.97;98.66;101397.09;6176785;28;20225;-69
2023/02/03 03:13:04;;;;;;;12.90;2.80;;;;;;;9.87;98.76;101396.94;6172452;28;20229;-69
2023/02/03 03:16:30;;;;;;;4.07;3.43;;;;;;;10.21;97.44;101396.06;6158487;28;20599;-68
2023/02/03 03:19:55;;;;;;;10.37;2.27;;;;;;;10.03;97.74;101383.16;6174393;28;20257;-68
2023/02/03 03:23:21;;;;;;;4.13;2.10;;;;;;;9.91;98.40;101378.72;6166655;28;20234;-68
2023/02/03 03:26:49;;;;;;;5.30;2.33;;;;;;;10.08;97.08;101367.47;6170504;28;20252;-69
2023/02/03 03:30:15;;;;;;;2.27;2.13;;;;;;;10.20;96.27;101378.16;6177115;28;20576;-68
2023/02/03 03:33:36;;;;;;;3.33;1.83;;;;;;;10.10;96.13;101368.19;6140879;28;20222;-69
2023/02/03 03:37:03;;;;;;;2.47;1.10;;;;;;;10.05;96.67;101357.81;6168460;28;20237;-69
2023/02/03 03:40:32;;;;;;;2.50;1.27;;;;;;;10.05;96.31;101357.81;6175800;28;20628;-69
2023/02/03 03:43:57;;;;;;;7.00;4.40;;;;;;;9.92;97.23;101348.97;6172007;28;20220;-68
2023/02/03 03:47:23;;;;;;;2.10;1.23;;;;;;;9.94;97.81;101354.22;6170218;28;20241;-69
2023/02/03 03:50:50;;;;;;;1.70;1.57;;;;;;;10.18;96.45;101360.44;6174452;28;20237;-68
2023/02/03 03:54:15;;;;;;;1.77;1.57;;;;;;;10.12;96.55;101364.44;6153349;28;20518;-69
2023/02/03 03:57:42;;;;;;;1.47;1.37;;;;;;;9.95;97.98;101345.19;6171111;28;20229;-68
2023/02/03 04:01:06;;;;;;;2.50;2.13;;;;;;;10.03;98.22;101367.00;6135922;28;20243;-68
2023/02/03 04:04:28;;;;;;;2.13;1.50;;;;;;;10.16;97.40;101362.34;6154919;28;20233;-69
2023/02/03 04:07:48;;;;;;;2.97;2.37;;;;;;;10.21;97.47;101346.69;6166079;28;20233;-68
2023/02/03 04:11:09;;;;;;;1.97;1.70;;;;;;;9.86;100.00;101345.91;6163602;28;20240;-68
2023/02/03 04:14:34;;;;;;;2.07;1.83;;;;;;;9.82;100.00;101336.34;6166339;28;20230;-70
2023/02/03 04:17:55;;;;;;;3.50;1.30;;;;;;;9.98;100.00;101340.41;6180924;28;20221;-68
2023/02/03 04:21:16;;;;;;;5.97;1.67;;;;;;;9.58;100.00;101328.34;6165945;28;20233;-69
2023/02/03 04:24:37;;;;;;;1.90;1.27;;;;;;;9.71;100.00;101321.03;6169900;28;20226;-68
2023/02/03 04:27:59;;;;;;;1.37;1.27;;;;;;;9.92;100.00;101303.19;6174210;28;20494;-68
2023/02/03 04:31:21;;;;;;;7.17;2.30;;;;;;;9.54;100.00;101297.25;6166147;28;20229;-68
2023/02/03 04:34:41;;;;;;;3.73;2.57;;;;;;;9.55;100.00;101294.44;6186308;28;20229;-69
2023/02/03 04:38:02;;;;;;;1.70;1.60;;;;;;;9.59;100.00;101300.47;6179421;28;20225;-69
2023/02/03 04:41:23;;;;;;;1.57;1.20;;;;;;;9.76;100.00;101302.69;6165799;28;20229;-68
2023/02/03 04:44:44;;;;;;;3.30;1.30;;;;;;;9.74;100.00;101328.03;6167728;28;20230;-66
2023/02/03 04:48:07;;;;;;;1.73;1.63;;;;;;;9.65;100.00;101298.16;6169511;28;20323;-68
2023/02/03 04:51:28;;;;;;;1.43;1.33;;;;;;;9.68;100.00;101305.09;6173886;28;20237;-68
2023/02/03 04:54:49;;;;;;;1.37;1.27;;;;;;;9.80;100.00;101304.16;6185089;28;20230;-68
2023/02/03 04:58:09;;;;;;;1.33;1.23;;;;;;;9.86;100.00;101310.91;6165197;28;20241;-69
2023/02/03 05:01:30;;;;;;;4.20;2.37;;;;;;;9.68;100.00;101287.13;6168084;28;20229;-69
2023/02/03 05:04:52;;;;;;;11.83;2.93;;;;;;;9.68;100.00;101283.56;6182853;28;20226;-68
2023/02/03 05:08:13;;;;;;;2.57;1.57;;;;;;;9.85;100.00;101285.78;6181779;28;20233;-69
2023/02/03 05:11:34;;;;;;;2.60;2.27;;;;;;;9.82;100.00;101258.28;6171670;28;20233;-69
2023/02/03 05:14:55;;;;;;;1.43;1.33;;;;;;;9.99;100.00;101268.56;6178828;28;20225;-70
2023/02/03 05:18:16;;;;;;;1.53;1.43;;;;;;;9.63;100.00;101231.94;6169873;28;20628;-69
2023/02/03 05:21:38;;;;;;;3.27;2.47;;;;;;;9.91;100.00;101246.78;6176250;28;20232;-68
2023/02/03 05:24:59;;;;;;;4.93;1.70;;;;;;;9.71;100.00;101226.81;6178068;28;20230;-68
2023/02/03 05:28:20;;;;;;;3.17;2.97;;;;;;;9.70;100.00;101243.09;6177382;28;20238;-69
2023/02/03 05:31:41;;;;;;;4.37;1.90;;;;;;;9.74;100.00;101218.50;6173923;28;20608;-69
2023/02/03 05:36:01;;;;;;;2.73;2.27;;;;;;;-142.52;100.00;62712.56;6179551;28;20234;-69
2023/02/03 05:44:58;;;;;;;5.07;2.07;;;;;;;-142.52;100.00;62712.56;6179001;28;20313;-68
2023/02/03 05:49:18;;;;;;;1.40;1.30;;;;;;;-142.52;100.00;62712.56;6173923;28;20241;-68
2023/02/03 05:53:37;;;;;;;1.93;1.83;;;;;;;-142.52;100.00;62712.56;6178121;28;20233;-68
2023/02/03 05:57:58;;;;;;;2.70;2.50;;;;;;;-142.52;100.00;62712.56;6163307;28;20234;-69
2023/02/03 06:02:18;;;;;;;2.90;1.50;;;;;;;-142.52;100.00;62712.56;6159590;28;21862;-69
2023/02/03 06:06:37;;;;;;;1.10;1.00;;;;;;;-142.52;100.00;62712.56;6171986;28;20230;-69
2023/02/03 06:10:59;;;;;;;1.30;1.20;;;;;;;-142.52;100.00;62712.56;6151556;28;20226;-70
2023/02/03 06:15:20;;;;;;;2.07;1.30;;;;;;;-142.52;100.00;62712.56;6170074;28;20218;-69
2023/02/03 06:19:39;;;;;;;1.90;1.80;;;;;;;-142.52;100.00;62712.56;6165694;28;20230;-70
2023/02/03 06:23:59;;;;;;;2.40;2.00;;;;;;;-142.52;100.00;62712.56;6185087;28;20229;-69
2023/02/03 06:28:18;;;;;;;1.60;1.50;;;;;;;-142.52;100.00;62712.56;6174480;28;20320;-70
2023/02/03 06:32:39;;;;;;;10.70;1.83;;;;;;;-142.52;100.00;62712.56;6168570;28;20233;-69
2023/02/03 06:36:58;;;;;;;4.27;3.00;;;;;;;-142.52;100.00;62712.56;6167404;28;20502;-69
2023/02/03 06:41:18;;;;;;;1.50;1.40;;;;;;;-142.52;100.00;62712.56;6176908;28;20230;-70
2023/02/03 06:45:37;;;;;;;1.63;1.20;;;;;;;-142.52;100.00;62712.56;6169019;28;20624;-70
2023/02/03 06:49:58;;;;;;;3.30;1.60;;;;;;;-142.52;100.00;62712.56;6174126;28;20234;-70
2023/02/03 06:54:17;;;;;;;2.87;1.63;;;;;;;-142.52;100.00;62712.56;6168915;28;20369;-70
2023/02/03 06:58:41;;;;;;;1.87;1.43;;;;;;;-142.52;100.00;62712.56;6154938;28;20278;-68
2023/02/03 07:03:01;;;;;;;2.47;2.23;;;;;;;-142.52;100.00;62712.56;6177018;28;20221;-70
2023/02/03 07:07:22;;;;;;;6.53;2.23;;;;;;;-142.52;100.00;62712.56;6181539;28;20221;-69
2023/02/03 07:11:41;;;;;;;4.00;2.20;;;;;;;-142.52;100.00;62712.56;6178550;28;20242;-69
2023/02/03 07:16:01;;;;;;;3.03;1.47;;;;;;;-142.52;100.00;62712.56;6179183;28;20222;-70
2023/02/03 07:20:21;;;;;;;1.70;1.30;;;;;;;-142.52;100.00;62712.56;6178566;28;20233;-70
2023/02/03 07:24:41;;;;;;;6.10;1.80;;;;;;;-142.52;100.00;62712.56;6154334;28;20229;-69
2023/02/03 07:29:01;;;;;;;1.50;1.33;;;;;;;-142.52;100.00;62712.56;6150132;28;21975;-71
2023/02/03 07:33:20;;;;;;;2.20;1.57;;;;;;;-142.52;100.00;62712.56;6164339;28;20229;-71
2023/02/03 07:37:40;;;;;;;6.73;1.67;;;;;;;-142.52;100.00;62712.56;6177409;28;20226;-72
2023/02/03 07:42:01;;;;;;;7.27;1.73;;;;;;;-142.52;100.00;62712.56;6166108;28;20231;-69
2023/02/03 07:46:21;;;;;;;1.53;1.33;;;;;;;-142.52;100.00;62712.56;6150690;28;20234;-70
2023/02/03 07:50:41;;;;;;;5.37;3.83;;;;;;;-142.52;100.00;62712.56;6166946;28;20233;-71
2023/02/03 07:55:00;;;;;;;1.43;1.33;;;;;;;-142.52;100.00;62712.56;6178237;28;20508;-70
2023/02/03 07:59:21;;;;;;;2.87;2.30;;;;;;;-142.52;100.00;62712.56;6176800;28;20257;-71
2023/02/03 08:03:41;;;;;;;3.43;1.50;;;;;;;-142.52;100.00;62712.56;6161152;28;20240;-71
2023/02/03 08:08:00;;;;;;;7.77;2.00;;;;;;;-142.52;100.00;62712.56;6160542;28;20501;-69
2023/02/03 08:12:20;;;;;;;6.30;2.77;;;;;;;-142.52;100.00;62712.56;6164022;28;20248;-69
2023/02/03 08:16:41;;;;;;;3.13;1.63;;;;;;;-142.52;100.00;62712.56;6169349;28;21593;-70
2023/02/03 08:21:02;;;;;;;1.57;1.20;;;;;;;-142.52;100.00;62712.56;6167121;28;20228;-68
2023/02/03 08:25:22;;;;;;;2.57;2.13;;;;;;;-142.52;100.00;62712.56;6172033;28;20225;-68
2023/02/03 08:29:42;;;;;;;5.57;2.00;;;;;;;-142.52;100.00;62712.56;6160769;28;20676;-71
2023/02/03 08:34:04;;;;;;;3.17;1.40;;;;;;;-142.52;100.00;62712.56;6178563;28;20351;-70
2023/02/03 08:38:23;;;;;;;14.57;2.43;;;;;;;-142.52;100.00;62712.56;6150496;28;20228;-68
2023/02/03 08:42:42;;;;;;;2.77;1.80;;;;;;;-142.52;100.00;62712.56;6162527;28;21423;-68
2023/02/03 08:47:02;;;;;;;7.50;2.50;;;;;;;-142.52;100.00;62712.56;6156441;28;20222;-68
2023/02/03 08:51:23;;;;;;;3.37;2.40;;;;;;;-142.52;100.00;62712.56;6166009;28;20254;-70
2023/02/03 08:55:43;;;;;;;8.03;5.53;;;;;;;-142.52;100.00;62712.56;6169740;28;20233;-70
2023/02/03 09:00:03;;;;;;;9.20;3.53;;;;;;;-142.52;100.00;62712.56;6172322;28;20227;-69
2023/02/03 09:04:24;;;;;;;15.93;5.57;;;;;;;-142.52;100.00;62712.56;6175262;28;20257;-69
2023/02/03 09:08:48;;;;;;;8.50;4.90;;;;;;;-142.52;100.00;62712.56;6140077;28;20239;-68
2023/02/03 09:13:07;;;;;;;10.23;4.37;;;;;;;-142.52;100.00;62712.56;6171721;28;20232;-69
2023/02/03 09:17:27;;;;;;;5.63;3.50;;;;;;;-142.52;100.00;62712.56;6172861;28;20249;-69
2023/02/03 09:21:47;;;;;;;8.57;3.00;;;;;;;-142.52;100.00;62712.56;6175502;28;20234;-68
2023/02/03 09:26:09;;;;;;;4.33;3.03;;;;;;;-142.52;100.00;62712.56;6150005;28;20321;-69
2023/02/03 09:30:28;;;;;;;12.00;3.47;;;;;;;-142.52;100.00;62712.56;6175748;28;20323;-68
2023/02/03 09:34:48;;;;;;;11.73;5.47;;;;;;;-142.52;100.00;62712.56;6166128;28;20233;-70
2023/02/03 09:39:07;;;;;;;10.07;4.37;;;;;;;-142.52;100.00;62712.56;6160157;28;20297;-69
2023/02/03 09:43:36;;;;;;;12.83;4.03;;;;;;;-142.52;100.00;62712.56;6155503;28;20230;-69
2023/02/03 09:48:02;;;;;;;7.93;5.03;;;;;;;-142.52;100.00;62712.56;6166233;28;20591;-69
2023/02/03 09:52:26;;;;;;;10.77;4.87;;;;;;;-142.52;100.00;62712.56;6165169;28;20261;-69
2023/02/03 09:56:51;;;;;;;7.80;5.10;;;;;;;-142.52;100.00;62712.56;6152271;28;20272;-67
2023/02/03 10:01:20;;;;;;;19.07;4.83;;;;;;;-142.52;100.00;62712.56;6144559;28;20326;-67
2023/02/03 10:05:48;;;;;;;15.00;6.23;;;;;;;-142.52;100.00;62712.56;6172594;28;20222;-68
2023/02/03 10:10:18;;;;;;;14.43;5.43;;;;;;;-142.52;100.00;62712.56;6164750;28;20225;-69
2023/02/03 10:14:56;;;;;;;13.00;4.80;;;;;;;-142.52;100.00;62712.56;6148575;28;20548;-68
2023/02/03 10:19:20;;;;;;;17.97;8.27;;;;;;;-142.52;100.00;62712.56;6164994;28;20245;-67
2023/02/03 10:23:43;;;;;;;22.07;6.13;;;;;;;-142.52;100.00;62712.56;6125195;28;20230;-68
2023/02/03 10:28:04;;;;;;;18.93;5.23;;;;;;;-142.52;100.00;62712.56;6168086;28;21108;-68
2023/02/03 10:32:27;;;;;;;17.63;6.40;;;;;;;-142.52;100.00;62712.56;6163067;28;20248;-66
2023/02/03 10:36:54;;;;;;;13.73;5.83;;;;;;;-142.52;100.00;62712.56;6166977;28;21733;-68
2023/02/03 10:41:14;;;;;;;7.67;4.47;;;;;;;-142.52;100.00;62712.56;6170885;28;20230;-69
2023/02/03 10:45:37;;;;;;;12.27;6.97;;;;;;;-142.52;100.00;62712.56;6165016;28;20238;-68
2023/02/03 10:49:57;;;;;;;20.37;6.30;;;;;;;-142.52;100.00;62712.56;6168764;28;20225;-69
2023/02/03 10:54:30;;;;;;;16.73;6.07;;;;;;;-142.52;100.00;62712.56;6184357;28;20300;-69
2023/02/03 10:58:52;;;;;;;11.07;6.37;;;;;;;-142.52;100.00;62712.56;6187098;28;20533;-68
2023/02/03 11:03:22;;;;;;;15.77;7.43;;;;;;;-142.52;100.00;62712.56;6175823;28;20217;-68
2023/02/03 11:07:52;;;;;;;13.13;5.37;;;;;;;-142.52;100.00;62712.56;6161170;28;20233;-68
2023/02/03 11:12:15;;;;;;;12.70;4.83;;;;;;;-142.52;100.00;62712.56;6170582;28;20241;-68
2023/02/03 11:16:35;;;;;;;12.83;5.97;;;;;;;-142.52;100.00;62712.56;6170389;28;20332;-69
2023/02/03 11:21:01;;;;;;;20.30;5.03;;;;;;;-142.52;100.00;62712.56;6165134;28;20241;-68
2023/02/03 11:25:25;;;;;;;14.00;7.83;;;;;;;-142.52;100.00;62712.56;6173606;28;20234;-70
2023/02/03 11:29:49;;;;;;;8.67;4.13;;;;;;;-142.52;100.00;62712.56;6162135;28;20245;-67
2023/02/03 11:34:16;;;;;;;11.20;3.27;;;;;;;-142.52;100.00;62712.56;6150387;28;20238;-70
2023/02/03 11:38:37;;;;;;;13.10;6.43;;;;;;;-142.52;100.00;62712.56;6160428;28;20234;-68
2023/02/03 11:43:01;;;;;;;7.27;4.43;;;;;;;-142.52;100.00;62712.56;6164652;28;20253;-69
2023/02/03 11:47:22;;;;;;;7.37;4.00;;;;;;;-142.52;100.00;62712.56;6151020;28;20249;-68
2023/02/03 11:51:49;;;;;;;14.67;5.73;;;;;;;-142.52;100.00;62712.56;6157073;28;21713;-69
2023/02/03 11:56:25;;;;;;;11.30;4.60;;;;;;;-142.52;100.00;62712.56;6160886;28;20226;-69
2023/02/03 12:00:50;;;;;;;14.63;6.37;;;;;;;-142.52;100.00;62712.56;6164323;28;20349;-70
2023/02/03 12:05:28;;;;;;;11.90;6.47;;;;;;;-142.52;100.00;62712.56;6144751;28;20230;-68
2023/02/03 12:10:05;;;;;;;9.77;4.53;;;;;;;-142.52;100.00;62712.56;6154159;28;21021;-69
2023/02/03 12:14:41;;;;;;;13.43;6.10;;;;;;;-142.52;100.00;62712.56;6179217;28;20242;-67
2023/02/03 12:19:13;;;;;;;8.43;5.70;;;;;;;-142.52;100.00;62712.56;6176401;28;20658;-68
2023/02/03 12:23:45;;;;;;;17.30;6.57;;;;;;;-142.52;100.00;62712.56;6180874;28;20225;-67
2023/02/03 12:28:17;;;;;;;17.77;5.40;;;;;;;-142.52;100.00;62712.56;6177721;28;20518;-69
2023/02/03 12:32:40;;;;;;;19.37;4.87;;;;;;;-142.52;100.00;62712.56;6161867;28;20306;-68
2023/02/03 12:37:05;;;;;;;8.43;5.30;;;;;;;-142.52;100.00;62712.56;6168506;28;20505;-69
2023/02/03 12:41:35;;;;;;;13.03;5.23;;;;;;;-142.52;100.00;62712.56;6174378;28;20229;-68
2023/02/03 12:46:00;;;;;;;24.57;5.43;;;;;;;-142.52;100.00;62712.56;6153452;28;20223;-69
2023/02/03 12:50:29;;;;;;;11.17;5.87;;;;;;;-142.52;100.00;62712.56;6152867;28;20229;-69
2023/02/03 12:54:55;;;;;;;11.57;6.20;;;;;;;-142.52;100.00;62712.56;6157036;28;20503;-69
2023/02/03 12:59:22;;;;;;;14.67;5.13;;;;;;;-142.52;100.00;62712.56;6154066;28;20245;-69
2023/02/03 13:03:49;;;;;;;13.13;4.97;;;;;;;-142.52;100.00;62712.56;6169010;28;20225;-68
2023/02/03 13:08:17;;;;;;;10.53;5.60;;;;;;;-142.52;100.00;62712.56;6182172;28;20217;-68
2023/02/03 13:12:41;;;;;;;9.17;4.30;;;;;;;-142.52;100.00;62712.56;6177322;28;20686;-69
2023/02/03 13:17:08;;;;;;;12.10;4.87;;;;;;;-142.52;100.00;62712.56;6138494;28;20256;-67
2023/02/03 13:21:29;;;;;;;17.23;5.03;;;;;;;-142.52;100.00;62712.56;6156414;28;20306;-68
2023/02/03 13:26:17;;;;;;;11.97;4.37;;;;;;;-142.52;100.00;62712.56;6181109;28;20312;-67
2023/02/03 13:30:50;;;;;;;8.33;3.93;;;;;;;-142.52;100.00;62712.56;6171240;28;20222;-68
2023/02/03 13:35:28;;;;;;;8.50;4.37;;;;;;;-142.52;100.00;62712.56;6181719;28;20233;-69
2023/02/03 13:40:16;;;;;;;9.93;4.20;;;;;;;-142.52;100.00;62712.56;6181771;28;20479;-68
2023/02/03 13:44:39;;;;;;;12.47;5.10;;;;;;;-142.52;100.00;62712.56;6183610;28;20218;-67
2023/02/03 13:49:05;;;;;;;14.43;5.40;;;;;;;-142.52;100.00;62712.56;6166433;28;20577;-69
2023/02/03 13:53:28;;;;;;;14.20;5.20;;;;;;;-142.52;100.00;62712.56;6174302;28;20233;-69
2023/02/03 13:57:52;;;;;;;15.27;3.87;;;;;;;-142.52;100.00;62712.56;6169646;28;20225;-69
2023/02/03 14:02:30;;;;;;;12.30;4.07;;;;;;;-142.52;100.00;62712.56;6169932;28;20228;-68
2023/02/03 14:06:54;;;;;;;5.97;3.67;;;;;;;-142.52;100.00;62712.56;6170443;28;20226;-68
2023/02/03 14:11:38;;;;;;;11.63;4.17;;;;;;;-142.52;100.00;62712.56;6178427;28;20243;-68
2023/02/03 14:16:14;;;;;;;8.73;4.20;;;;;;;-142.52;100.00;62712.56;6156160;28;20230;-69
2023/02/03 14:21:11;;;;;;;10.63;5.43;;;;;;;-142.52;100.00;62712.56;6163728;28;20254;-69
2023/02/03 14:25:37;;;;;;;13.13;6.37;;;;;;;-142.52;100.00;62712.56;6175154;28;20233;-70
2023/02/03 14:30:04;;;;;;;8.63;5.47;;;;;;;-142.52;100.00;62712.56;6171498;28;20233;-67
2023/02/03 14:34:44;;;;;;;6.90;2.93;;;;;;;-142.52;100.00;62712.56;6144717;28;20784;-68
2023/02/03 14:39:24;;;;;;;13.10;4.63;;;;;;;-142.52;100.00;62712.56;6160285;28;20233;-67
2023/02/03 14:44:06;;;;;;;12.77;3.97;;;;;;;-142.52;100.00;62712.56;6162000;28;20229;-68
2023/02/03 14:48:43;;;;;;;8.60;5.03;;;;;;;-142.52;100.00;62712.56;6163679;28;20263;-68
2023/02/03 14:53:20;;;;;;;13.97;6.23;;;;;;;-142.52;100.00;62712.56;6156947;28;20642;-69
2023/02/03 14:57:47;;;;;;;8.43;5.10;;;;;;;-142.52;100.00;62712.56;6173376;28;20569;-69
2023/02/03 15:02:24;;;;;;;12.20;4.63;;;;;;;-142.52;100.00;62712.56;6167757;28;20754;-67
2023/02/03 15:06:45;;;;;;;18.30;5.10;;;;;;;-142.52;100.00;62712.56;6168157;28;20320;-67
2023/02/03 15:11:23;;;;;;;6.10;3.57;;;;;;;-142.52;100.00;62712.56;6161257;28;20226;-68
2023/02/03 15:15:43;;;;;;;12.33;4.80;;;;;;;-142.52;100.00;62712.56;6183547;28;20670;-68
2023/02/03 15:20:23;;;;;;;10.50;5.37;;;;;;;-142.52;100.00;62712.56;6164177;28;20229;-68
2023/02/03 15:24:43;;;;;;;8.40;4.27;;;;;;;-142.52;100.00;62712.56;6151360;28;20304;-67
2023/02/03 15:29:19;;;;;;;7.70;3.63;;;;;;;-142.52;100.00;62712.56;6147856;28;20987;-69
2023/02/03 15:33:43;;;;;;;13.07;5.40;;;;;;;-142.52;100.00;62712.56;6172184;28;20230;-68
2023/02/03 15:38:07;;;;;;;20.53;5.63;;;;;;;-142.52;100.00;62712.56;6159534;28;20225;-69
2023/02/03 15:42:30;;;;;;;6.60;4.00;;;;;;;-142.52;100.00;62712.56;6167821;28;20220;-68
2023/02/03 15:46:57;;;;;;;9.40;3.67;;;;;;;-142.52;100.00;62712.56;6128624;28;20234;-68
2023/02/03 15:51:30;;;;;;;14.00;5.40;;;;;;;-142.52;100.00;62712.56;6180086;28;20233;-68
2023/02/03 15:55:59;;;;;;;9.50;4.57;;;;;;;-142.52;100.00;62712.56;6173996;28;20249;-67
2023/02/03 16:00:27;;;;;;;28.87;4.57;;;;;;;-142.52;100.00;62712.56;6171308;28;20233;-69
2023/02/03 16:04:48;;;;;;;12.13;7.40;;;;;;;-142.52;100.00;62712.56;6170616;28;20230;-68
2023/02/03 16:09:28;;;;;;;20.77;5.80;;;;;;;-142.52;100.00;62712.56;6181551;28;20221;-67
2023/02/03 16:13:49;;;;;;;8.97;3.40;;;;;;;-142.52;100.00;62712.56;6180561;28;20336;-69
2023/02/03 16:18:26;;;;;;;14.87;4.40;;;;;;;-142.52;100.00;62712.56;6166643;28;20229;-70
2023/02/03 16:23:00;;;;;;;12.73;3.67;;;;;;;-142.52;100.00;62712.56;6165270;28;20230;-69
2023/02/03 16:27:32;;;;;;;24.97;6.13;;;;;;;-142.52;100.00;62712.56;6167242;28;20607;-69
2023/02/03 16:50:51;;;;;;;17.80;5.40;;;;;;;-142.52;100.00;62712.56;6173075;28;20234;-67
2023/02/03 16:55:12;;;;;;;17.23;5.20;;;;;;;-142.52;100.00;62712.56;6182332;28;20619;-67
2023/02/03 16:59:31;;;;;;;6.27;4.13;;;;;;;-142.52;100.00;62712.56;6170945;28;20229;-68
2023/02/03 17:03:51;;;;;;;10.47;6.20;;;;;;;-142.52;100.00;62712.56;6187378;28;20241;-68
2023/02/03 17:08:12;;;;;;;12.40;5.20;;;;;;;-142.52;100.00;62712.56;6173804;28;20222;-68
2023/02/03 17:12:32;;;;;;;14.87;5.40;;;;;;;-142.52;100.00;62712.56;6174622;28;20228;-68
2023/02/03 17:16:51;;;;;;;21.57;5.47;;;;;;;-142.52;100.00;62712.56;6170171;28;20957;-67
2023/02/03 17:21:13;;;;;;;11.93;5.53;;;;;;;-142.52;100.00;62712.56;6186625;28;20313;-67
2023/02/03 17:25:34;;;;;;;11.23;5.47;;;;;;;-142.52;100.00;62712.56;6170340;28;20237;-67
2023/02/03 17:29:54;;;;;;;12.67;6.17;;;;;;;-142.52;100.00;62712.56;6169746;28;20222;-67
2023/02/03 17:34:13;;;;;;;8.40;5.13;;;;;;;-142.52;100.00;62712.56;6168767;28;20660;-66
2023/02/03 17:38:37;;;;;;;16.20;5.17;;;;;;;-142.52;100.00;62712.56;6165526;28;20237;-66
2023/02/03 17:42:58;;;;;;;9.80;4.30;;;;;;;-142.52;100.00;62712.56;6171777;28;20229;-66
2023/02/03 17:47:18;;;;;;;30.23;5.13;;;;;;;-142.52;100.00;62712.56;6165893;28;20267;-66
2023/02/03 17:51:38;;;;;;;12.10;5.17;;;;;;;-142.52;100.00;62712.56;6167554;28;20229;-68
2023/02/03 17:55:57;;;;;;;11.20;4.97;;;;;;;-142.52;100.00;62712.56;6171289;28;20325;-66
2023/02/03 18:00:18;;;;;;;13.63;6.70;;;;;;;-142.52;100.00;62712.56;6164272;28;21167;-66
2023/02/03 18:04:38;;;;;;;19.43;6.10;;;;;;;-142.52;100.00;62712.56;6167712;28;20230;-67
2023/02/03 18:09:00;;;;;;;14.07;7.30;;;;;;;-142.52;100.00;62712.56;6178027;28;20619;-67
2023/02/03 18:13:22;;;;;;;12.60;5.83;;;;;;;-142.52;100.00;62712.56;6163412;28;20697;-67
2023/02/03 18:17:43;;;;;;;10.83;5.50;;;;;;;-142.52;100.00;62712.56;6147959;28;20253;-66
2023/02/03 18:22:02;;;;;;;21.47;5.93;;;;;;;-142.52;100.00;62712.56;6165660;28;20257;-68
2023/02/03 18:26:22;;;;;;;14.87;4.70;;;;;;;-142.52;100.00;62712.56;6154813;28;20568;-67
2023/02/03 18:30:43;;;;;;;15.40;5.97;;;;;;;-142.52;100.00;62712.56;6176485;28;20237;-66
2023/02/03 18:35:05;;;;;;;8.20;3.63;;;;;;;-142.52;100.00;62712.56;6171095;28;20506;-66
2023/02/03 18:39:25;;;;;;;11.97;4.00;;;;;;;-142.52;100.00;62712.56;6165858;28;20274;-67
2023/02/03 18:43:44;;;;;;;6.53;4.50;;;;;;;-142.52;100.00;62712.56;6168558;28;20217;-66
2023/02/03 18:48:04;;;;;;;20.57;5.47;;;;;;;-142.52;100.00;62712.56;6168536;28;20607;-67
2023/02/03 18:52:25;;;;;;;6.93;5.57;;;;;;;-142.52;100.00;62712.56;6167947;28;20225;-67